Time;durP1;ratioP1;P1;durP2;ratioP2;P2;SDS_P1;SDS_P2;PMS_P1;PMS_P2;Temp;Humidity;BMP_temperature;BMP_pressure;BME280_temperature;BME280_humidity;BME280_pressure;Samples;Min_cycle;Max_cycle;Signal;HPM_P1;HPM_P2
2022/04/30 00:02:13;;;;;;;18.40;8.80;;;;;;;3.91;100.00;101734.91;7387982;19;20506;-54
2022/04/30 00:04:44;;;;;;;11.33;6.80;;;;;;;3.90;100.00;101731.44;7391974;19;20435;-55
2022/04/30 00:07:16;;;;;;;14.30;7.73;;;;;;;3.82;100.00;101717.13;7389391;19;20420;-51
2022/04/30 00:09:46;;;;;;;25.67;11.77;;;;;;;4.02;100.00;101710.25;7394166;19;20917;-48
2022/04/30 00:12:16;;;;;;;13.90;7.27;;;;;;;3.95;100.00;101697.75;7388072;19;20423;-51
2022/04/30 00:14:47;;;;;;;18.47;7.40;;;;;;;3.97;100.00;101686.00;7392417;19;20765;-58
2022/04/30 00:17:19;;;;;;;13.70;7.40;;;;;;;3.90;100.00;101690.56;7388529;19;20725;-53
2022/04/30 00:19:49;;;;;;;14.33;7.23;;;;;;;3.98;100.00;101672.44;7393696;19;20390;-53
2022/04/30 00:22:18;;;;;;;15.10;6.87;;;;;;;3.87;100.00;101675.03;7387308;19;20425;-50
2022/04/30 00:24:49;;;;;;;21.97;8.83;;;;;;;3.78;100.00;101669.13;7391498;19;20429;-57
2022/04/30 00:27:20;;;;;;;20.57;7.60;;;;;;;3.88;100.00;101658.94;7386880;19;20428;-51
2022/04/30 00:29:50;;;;;;;19.47;8.07;;;;;;;4.41;100.00;101642.75;7393386;19;20367;-54
2022/04/30 00:32:22;;;;;;;18.87;9.83;;;;;;;4.42;100.00;101647.09;7386246;19;20492;-56
2022/04/30 00:34:51;;;;;;;20.73;8.07;;;;;;;4.27;100.00;101640.75;7394960;19;20415;-52
2022/04/30 00:37:21;;;;;;;15.43;7.93;;;;;;;4.11;100.00;101647.16;7387955;19;20412;-53
2022/04/30 00:39:50;;;;;;;16.37;7.07;;;;;;;3.82;100.00;101653.31;7393503;19;20388;-58
2022/04/30 00:42:20;;;;;;;18.60;7.83;;;;;;;3.68;100.00;101647.03;7386614;19;20423;-53
2022/04/30 00:44:49;;;;;;;18.53;7.40;;;;;;;3.68;100.00;101641.94;7390762;19;20505;-56
2022/04/30 00:47:21;;;;;;;12.50;6.90;;;;;;;3.68;100.00;101635.94;7387604;19;20510;-52
2022/04/30 00:49:51;;;;;;;19.10;6.60;;;;;;;3.58;100.00;101621.53;7390774;19;20471;-56
2022/04/30 00:52:25;;;;;;;17.70;7.90;;;;;;;3.51;100.00;101618.47;7385799;19;20415;-56
2022/04/30 00:54:59;;;;;;;26.13;7.30;;;;;;;3.47;100.00;101596.00;7390246;19;20774;-50
2022/04/30 00:57:31;;;;;;;20.37;7.40;;;;;;;3.49;100.00;101583.38;7382679;19;20417;-52
2022/04/30 01:00:03;;;;;;;18.93;7.40;;;;;;;3.51;100.00;101566.53;7391205;19;20387;-49
2022/04/30 01:02:36;;;;;;;14.80;8.10;;;;;;;3.56;100.00;101554.13;7379786;19;20423;-53
2022/04/30 01:05:07;;;;;;;14.20;7.40;;;;;;;3.68;100.00;101532.19;7390024;19;20424;-50
2022/04/30 01:07:38;;;;;;;14.40;7.60;;;;;;;3.74;100.00;101522.47;7386634;19;20423;-53
2022/04/30 01:10:10;;;;;;;16.27;7.30;;;;;;;3.62;100.00;101522.38;7392400;19;20390;-47
2022/04/30 01:12:40;;;;;;;19.00;7.43;;;;;;;3.82;100.00;101501.78;7383834;19;20407;-55
2022/04/30 01:15:11;;;;;;;14.60;7.63;;;;;;;4.07;100.00;101491.88;7390270;19;20414;-49
2022/04/30 01:17:44;;;;;;;14.63;7.50;;;;;;;4.06;100.00;101487.56;7386502;19;20415;-54
2022/04/30 01:20:14;;;;;;;19.30;8.90;;;;;;;4.26;100.00;101486.56;7392151;19;20467;-50
2022/04/30 01:22:57;;;;;;;14.63;7.10;;;;;;;4.29;100.00;101488.47;7381488;19;21045;-52
2022/04/30 01:25:26;;;;;;;22.10;6.57;;;;;;;4.21;100.00;101493.00;7389894;19;20428;-50
2022/04/30 01:27:56;;;;;;;14.47;6.67;;;;;;;3.84;100.00;101496.03;7384476;19;20399;-49
2022/04/30 01:30:26;;;;;;;17.30;6.23;;;;;;;3.59;100.00;101499.13;7396172;19;20930;-52
2022/04/30 01:38:22;;;;;;;11.57;6.60;;;;;;;3.65;100.00;101484.31;7386592;19;20403;-55
2022/04/30 01:40:52;;;;;;;14.40;6.43;;;;;;;3.63;100.00;101484.97;7391883;19;20957;-53
2022/04/30 01:43:22;;;;;;;15.13;7.10;;;;;;;3.55;100.00;101486.91;7386606;19;20415;-54
2022/04/30 01:45:52;;;;;;;21.30;7.73;;;;;;;3.47;100.00;101477.72;7395870;19;20416;-49
2022/04/30 01:48:22;;;;;;;27.93;7.17;;;;;;;3.37;100.00;101466.75;7392026;19;20426;-48
2022/04/30 01:50:52;;;;;;;16.20;7.50;;;;;;;3.30;100.00;101459.38;7398856;19;20466;-53
2022/04/30 01:53:24;;;;;;;13.60;7.30;;;;;;;3.12;100.00;101451.06;7394099;19;20418;-51
2022/04/30 01:55:54;;;;;;;18.43;7.90;;;;;;;3.06;100.00;101432.72;7400466;19;20502;-55
2022/04/30 01:58:23;;;;;;;19.00;6.83;;;;;;;3.27;100.00;101405.53;7391443;19;20415;-51
2022/04/30 02:00:53;;;;;;;20.03;8.37;;;;;;;3.41;100.00;101385.34;7395400;19;20403;-50
2022/04/30 02:03:23;;;;;;;19.67;8.50;;;;;;;3.57;100.00;101345.00;7388831;19;20406;-56
2022/04/30 02:05:53;;;;;;;21.13;9.03;;;;;;;3.56;100.00;101339.78;7395337;19;20435;-49
2022/04/30 02:08:26;;;;;;;19.60;8.90;;;;;;;3.51;100.00;101332.66;7391947;19;20422;-47
2022/04/30 02:10:55;;;;;;;22.53;8.70;;;;;;;3.38;100.00;101338.44;7398692;19;20588;-53
2022/04/30 02:13:28;;;;;;;23.83;9.77;;;;;;;3.26;100.00;101326.34;7389757;19;20418;-48
2022/04/30 02:15:58;;;;;;;13.77;7.63;;;;;;;3.07;100.00;101325.75;7395810;19;20411;-52
2022/04/30 02:18:28;;;;;;;13.07;7.57;;;;;;;3.13;100.00;101311.72;7397164;19;20391;-49
2022/04/30 02:20:59;;;;;;;19.80;8.77;;;;;;;3.15;100.00;101295.78;7397975;19;20463;-50
2022/04/30 02:23:31;;;;;;;14.87;8.27;;;;;;;3.23;100.00;101268.34;7397410;19;20405;-51
2022/04/30 02:26:04;;;;;;;15.80;9.13;;;;;;;3.47;100.00;101260.84;7395398;19;20439;-55
2022/04/30 02:28:34;;;;;;;18.43;9.37;;;;;;;3.43;100.00;101259.69;7396651;19;20923;-52
2022/04/30 02:31:04;;;;;;;18.50;8.93;;;;;;;3.26;100.00;101257.47;7391742;19;20384;-51
2022/04/30 02:33:33;;;;;;;20.33;8.77;;;;;;;3.22;100.00;101257.25;7396373;19;20380;-54
2022/04/30 02:36:03;;;;;;;16.30;8.60;;;;;;;3.25;100.00;101254.03;7389239;19;20941;-52
2022/04/30 02:38:36;;;;;;;15.40;9.80;;;;;;;3.42;100.00;101240.06;7396671;19;20708;-55
2022/04/30 02:41:05;;;;;;;19.10;9.93;;;;;;;3.40;100.00;101235.63;7392412;19;20379;-53
2022/04/30 02:43:35;;;;;;;15.80;8.67;;;;;;;3.30;100.00;101234.91;7396118;19;20396;-54
2022/04/30 02:46:04;;;;;;;15.83;8.13;;;;;;;3.20;100.00;101232.38;7390552;19;20435;-53
2022/04/30 02:48:34;;;;;;;18.43;9.17;;;;;;;3.06;100.00;101237.28;7396196;19;20889;-56
2022/04/30 02:51:03;;;;;;;16.03;9.10;;;;;;;3.06;100.00;101227.09;7391517;19;20426;-50
2022/04/30 02:53:35;;;;;;;21.33;9.07;;;;;;;2.92;100.00;101217.44;7395733;19;20359;-52
2022/04/30 02:56:05;;;;;;;24.30;9.23;;;;;;;3.09;100.00;101204.38;7386308;19;20418;-54
2022/04/30 03:01:19;;;;;;;19.00;10.27;;;;;;;3.85;100.00;101176.13;7389779;19;20732;-54
2022/04/30 03:03:48;;;;;;;26.40;10.73;;;;;;;3.97;100.00;101175.28;7395842;19;20392;-54
2022/04/30 03:06:19;;;;;;;16.30;8.83;;;;;;;4.09;100.00;101165.97;7389554;19;20518;-57
2022/04/30 03:08:51;;;;;;;17.33;9.37;;;;;;;3.87;100.00;101183.91;7396213;19;20387;-52
2022/04/30 03:11:21;;;;;;;20.60;9.00;;;;;;;3.55;100.00;101188.34;7387556;19;20403;-53
2022/04/30 03:13:50;;;;;;;20.10;10.43;;;;;;;3.51;100.00;101193.97;7395525;19;20399;-58
2022/04/30 03:21:49;;;;;;;17.43;9.77;;;;;;;3.09;100.00;101206.03;7387563;19;20414;-54
2022/04/30 03:24:22;;;;;;;19.03;9.70;;;;;;;2.94;100.00;101203.16;7396856;19;20993;-52
2022/04/30 03:26:51;;;;;;;14.77;9.47;;;;;;;2.90;100.00;101203.66;7385815;19;20427;-51
2022/04/30 03:29:22;;;;;;;22.73;9.33;;;;;;;3.30;100.00;101181.34;7395560;19;20370;-46
2022/04/30 03:31:51;;;;;;;19.93;10.33;;;;;;;3.32;100.00;101183.97;7389165;19;20425;-52
2022/04/30 03:34:21;;;;;;;22.20;10.10;;;;;;;3.38;100.00;101171.72;7398246;19;20378;-54
2022/04/30 03:36:50;;;;;;;22.30;10.90;;;;;;;3.49;100.00;101164.91;7390362;19;20403;-54
2022/04/30 03:39:22;;;;;;;25.20;10.87;;;;;;;3.60;100.00;101158.94;7395809;19;20371;-53
2022/04/30 03:41:52;;;;;;;21.00;10.27;;;;;;;3.22;100.00;101174.72;7390602;19;20419;-51
2022/04/30 03:44:21;;;;;;;15.07;8.80;;;;;;;3.42;100.00;101162.63;7394471;19;20391;-57
2022/04/30 03:46:51;;;;;;;22.77;11.07;;;;;;;3.41;100.00;101163.41;7388379;19;20941;-48
2022/04/30 03:49:20;;;;;;;22.80;10.57;;;;;;;3.24;100.00;101165.56;7394940;19;20387;-56
2022/04/30 03:51:50;;;;;;;17.73;10.80;;;;;;;3.70;100.00;101145.22;7386932;19;20431;-51
2022/04/30 03:54:19;;;;;;;19.37;10.50;;;;;;;3.42;100.00;101165.19;7393745;19;20944;-57
2022/04/30 03:56:51;;;;;;;22.10;10.43;;;;;;;3.31;100.00;101172.91;7388581;19;20413;-51
2022/04/30 03:59:21;;;;;;;17.17;9.70;;;;;;;3.37;100.00;101175.03;7394517;19;20465;-57
2022/04/30 04:01:50;;;;;;;19.60;10.37;;;;;;;3.29;100.00;101182.13;7389379;19;20407;-52
2022/04/30 04:04:20;;;;;;;22.73;11.60;;;;;;;3.38;100.00;101177.72;7393142;19;20885;-54
2022/04/30 04:06:49;;;;;;;17.27;9.90;;;;;;;3.50;100.00;101180.31;7385988;19;20401;-55
2022/04/30 04:09:19;;;;;;;16.00;9.90;;;;;;;3.58;100.00;101169.84;7394091;19;20367;-54
2022/04/30 04:11:51;;;;;;;20.73;10.97;;;;;;;3.56;100.00;101177.34;7389048;19;20399;-52
2022/04/30 04:19:44;;;;;;;16.17;11.13;;;;;;;2.91;100.00;101203.81;7393979;19;20435;-54
2022/04/30 04:22:14;;;;;;;17.00;8.87;;;;;;;2.84;100.00;101197.31;7387200;19;20420;-51
2022/04/30 04:27:29;;;;;;;17.43;9.03;;;;;;;3.56;100.00;101172.25;7387136;19;20743;-55
2022/04/30 04:29:58;;;;;;;16.07;9.27;;;;;;;3.61;100.00;101167.50;7393966;19;20774;-54
2022/04/30 04:32:28;;;;;;;14.80;8.33;;;;;;;3.63;100.00;101174.50;7386630;19;20882;-50
2022/04/30 04:34:57;;;;;;;13.50;8.40;;;;;;;3.56;100.00;101182.47;7391897;19;20398;-50
2022/04/30 04:37:27;;;;;;;15.80;7.50;;;;;;;3.62;100.00;101187.13;7388816;19;20802;-52
2022/04/30 04:39:57;;;;;;;16.00;7.30;;;;;;;3.90;100.00;101173.94;7393463;19;20388;-56
2022/04/30 04:42:29;;;;;;;13.20;7.47;;;;;;;3.83;100.00;101182.78;7386248;19;20425;-51
2022/04/30 04:44:58;;;;;;;17.27;8.33;;;;;;;3.68;100.00;101200.38;7391640;19;20399;-54
2022/04/30 04:47:28;;;;;;;17.10;8.13;;;;;;;3.63;100.00;101205.13;7387054;19;20909;-56
2022/04/30 04:49:57;;;;;;;14.00;7.40;;;;;;;3.53;100.00;101202.63;7393050;19;20387;-57
2022/04/30 04:52:30;;;;;;;16.93;7.37;;;;;;;3.99;100.00;101194.19;7386455;19;20490;-50
2022/04/30 04:55:00;;;;;;;11.53;7.47;;;;;;;4.18;100.00;101196.44;7392143;19;20787;-48
2022/04/30 04:57:32;;;;;;;11.70;6.87;;;;;;;4.97;100.00;101185.94;7385236;19;20405;-55
2022/04/30 05:00:02;;;;;;;14.80;6.30;;;;;;;5.21;100.00;101204.69;7393075;19;20914;-54
2022/04/30 05:02:31;;;;;;;26.37;13.50;;;;;;;5.21;100.00;101225.13;7387149;19;20411;-51
2022/04/30 05:05:01;;;;;;;65.20;35.13;;;;;;;5.75;100.00;101239.91;7390781;19;20412;-52
2022/04/30 05:07:30;;;;;;;27.70;11.93;;;;;;;5.57;100.00;101265.13;7387138;19;20417;-55
2022/04/30 05:10:00;;;;;;;89.53;47.27;;;;;;;6.17;100.00;101274.44;7392742;19;20388;-53
2022/04/30 05:12:32;;;;;;;73.50;38.63;;;;;;;6.23;100.00;101312.38;7385429;19;20427;-52
2022/04/30 05:15:02;;;;;;;44.47;23.37;;;;;;;5.80;100.00;101357.25;7390732;19;20512;-50
2022/04/30 05:17:32;;;;;;;34.53;20.30;;;;;;;5.93;100.00;101379.50;7386689;19;20467;-54
2022/04/30 05:20:01;;;;;;;24.10;12.43;;;;;;;5.48;100.00;101412.16;7397779;19;20408;-55
2022/04/30 05:22:31;;;;;;;16.33;8.73;;;;;;;5.00;100.00;101436.78;7393637;19;20419;-53
2022/04/30 05:25:00;;;;;;;18.43;7.87;;;;;;;4.91;100.00;101443.78;7397848;19;20411;-54
2022/04/30 05:27:32;;;;;;;35.77;12.37;;;;;;;4.89;100.00;101450.41;7393653;19;20415;-55
2022/04/30 05:30:02;;;;;;;7.47;5.03;;;;;;;4.67;100.00;101452.22;7399846;19;20912;-54
2022/04/30 05:32:31;;;;;;;10.93;5.43;;;;;;;4.34;100.00;101456.50;7394004;19;20455;-52
2022/04/30 05:35:01;;;;;;;15.13;5.60;;;;;;;4.22;100.00;101447.88;7397333;19;20810;-55
2022/04/30 05:37:30;;;;;;;10.10;5.77;;;;;;;4.18;100.00;101439.09;7393924;19;20418;-51
2022/04/30 05:40:00;;;;;;;20.13;5.90;;;;;;;4.13;100.00;101436.19;7403191;19;20403;-54
2022/04/30 05:42:29;;;;;;;8.37;5.03;;;;;;;4.13;100.00;101423.41;7392061;19;20764;-48
2022/04/30 05:45:01;;;;;;;14.07;5.77;;;;;;;4.09;100.00;101421.38;7397168;19;20415;-55
2022/04/30 05:47:31;;;;;;;10.03;5.90;;;;;;;4.12;100.00;101415.63;7392310;19;20984;-52
2022/04/30 05:50:00;;;;;;;10.53;5.50;;;;;;;4.09;100.00;101407.72;7399047;19;20383;-55
2022/04/30 05:52:30;;;;;;;13.73;6.50;;;;;;;4.18;100.00;101404.22;7392545;19;20425;-55
2022/04/30 05:55:00;;;;;;;11.03;5.73;;;;;;;4.17;100.00;101404.09;7396842;19;20421;-53
2022/04/30 05:57:29;;;;;;;12.80;5.30;;;;;;;4.21;100.00;101401.03;7392682;19;20419;-52
2022/04/30 06:00:01;;;;;;;11.03;5.37;;;;;;;4.39;100.00;101400.66;7398776;19;20411;-53
2022/04/30 06:02:31;;;;;;;10.73;5.80;;;;;;;4.40;100.00;101398.22;7389988;19;20479;-58
2022/04/30 06:05:01;;;;;;;11.17;5.70;;;;;;;4.50;100.00;101398.94;7396231;19;20766;-49
2022/04/30 06:07:31;;;;;;;13.33;6.03;;;;;;;4.55;100.00;101405.28;7390468;19;20426;-53
2022/04/30 06:10:00;;;;;;;8.87;5.23;;;;;;;4.65;100.00;101402.66;7398314;19;20733;-49
2022/04/30 06:12:30;;;;;;;10.60;5.70;;;;;;;4.74;100.00;101410.13;7392316;19;20420;-54
2022/04/30 06:15:02;;;;;;;9.10;5.37;;;;;;;4.81;100.00;101416.59;7396444;19;20490;-55
2022/04/30 06:17:32;;;;;;;8.63;4.30;;;;;;;4.90;100.00;101417.31;7391127;19;20439;-52
2022/04/30 06:20:01;;;;;;;10.97;5.37;;;;;;;4.99;100.00;101425.66;7398814;19;20715;-54
2022/04/30 06:22:31;;;;;;;12.97;5.40;;;;;;;5.08;100.00;101432.25;7391484;19;20419;-53
2022/04/30 06:25:00;;;;;;;9.87;4.50;;;;;;;5.16;100.00;101437.91;7395975;19;20423;-54
2022/04/30 06:27:30;;;;;;;9.50;5.83;;;;;;;5.21;100.00;101445.19;7390419;19;20448;-59
2022/04/30 06:30:02;;;;;;;10.17;4.67;;;;;;;5.25;100.00;101462.56;7395637;19;20377;-56
2022/04/30 06:32:31;;;;;;;32.10;14.77;;;;;;;6.06;100.00;101442.75;7390848;19;20418;-52
2022/04/30 06:35:02;;;;;;;8.87;4.40;;;;;;;6.43;100.00;101474.34;7395606;19;20415;-53
2022/04/30 06:37:31;;;;;;;10.70;6.90;;;;;;;6.85;100.00;101496.06;7389770;19;20757;-57
2022/04/30 06:40:01;;;;;;;7.47;4.63;;;;;;;7.00;100.00;101536.38;7397511;19;20389;-48
2022/04/30 06:42:31;;;;;;;9.97;6.10;;;;;;;7.65;100.00;101574.09;7390577;19;20434;-54
2022/04/30 06:45:04;;;;;;;9.97;5.20;;;;;;;8.08;100.00;101613.72;7395392;19;20419;-49
2022/04/30 06:47:34;;;;;;;16.90;4.93;;;;;;;8.24;100.00;101662.78;7388248;19;20431;-54
2022/04/30 06:50:03;;;;;;;7.90;4.33;;;;;;;8.09;100.00;101715.75;7397057;19;20391;-54
2022/04/30 06:52:33;;;;;;;11.73;3.90;;;;;;;8.23;100.00;101751.00;7388601;19;20430;-57
2022/04/30 06:57:47;;;;;;;9.20;5.17;;;;;;;8.05;100.00;101814.00;7391331;19;20959;-52
2022/04/30 07:03:08;;;;;;;11.93;5.67;;;;;;;7.77;100.00;101841.25;7386271;19;20422;-49
2022/04/30 07:05:38;;;;;;;71.37;39.17;;;;;;;8.42;100.00;101842.25;7393879;19;20818;-50
2022/04/30 07:08:08;;;;;;;11.53;6.33;;;;;;;8.02;100.00;101854.91;7389929;19;20437;-51
2022/04/30 07:10:37;;;;;;;19.03;10.00;;;;;;;7.90;100.00;101865.22;7396840;19;20725;-52
2022/04/30 07:13:07;;;;;;;10.50;6.10;;;;;;;7.67;100.00;101862.81;7389648;19;20423;-56
2022/04/30 07:15:39;;;;;;;15.23;5.27;;;;;;;7.83;100.00;101853.63;7394100;19;20422;-47
2022/04/30 07:18:09;;;;;;;14.37;7.27;;;;;;;7.98;100.00;101856.38;7389333;19;20421;-48
2022/04/30 07:20:39;;;;;;;19.30;10.63;;;;;;;8.08;100.00;101860.47;7395763;19;20393;-53
2022/04/30 07:23:09;;;;;;;16.23;9.23;;;;;;;8.02;100.00;101863.53;7391344;19;20797;-52
2022/04/30 07:25:39;;;;;;;7.17;3.40;;;;;;;7.97;100.00;101873.50;7393617;19;20486;-57
2022/04/30 07:28:08;;;;;;;15.63;7.27;;;;;;;8.09;100.00;101870.88;7387116;19;20433;-52
2022/04/30 07:30:41;;;;;;;10.13;4.23;;;;;;;8.09;100.00;101877.69;7394002;19;20391;-51
2022/04/30 07:33:10;;;;;;;8.07;3.50;;;;;;;8.08;100.00;101875.91;7392474;19;20447;-48
2022/04/30 07:35:39;;;;;;;6.73;3.40;;;;;;;8.38;100.00;101871.97;7395597;19;20422;-50
2022/04/30 07:38:09;;;;;;;5.53;3.20;;;;;;;8.33;100.00;101875.03;7390570;19;20771;-54
2022/04/30 07:40:38;;;;;;;45.47;16.87;;;;;;;8.41;100.00;101883.28;7399338;19;20431;-56
2022/04/30 07:43:08;;;;;;;6.47;3.77;;;;;;;8.45;100.00;101882.69;7384718;19;20418;-53
2022/04/30 07:45:41;;;;;;;6.83;3.97;;;;;;;8.58;100.00;101879.31;7393137;19;20429;-56
2022/04/30 07:48:10;;;;;;;73.27;24.93;;;;;;;8.51;100.00;101894.34;7390386;19;20522;-52
2022/04/30 07:50:43;;;;;;;7.47;3.70;;;;;;;8.76;100.00;101890.84;7394745;19;20394;-51
2022/04/30 07:53:14;;;;;;;6.87;3.90;;;;;;;8.82;100.00;101897.22;7386325;19;20415;-53
2022/04/30 07:55:45;;;;;;;16.70;5.60;;;;;;;8.94;100.00;101904.84;7392715;19;20426;-52
2022/04/30 07:58:15;;;;;;;4.97;3.13;;;;;;;9.02;100.00;101908.81;7388497;19;20429;-54
2022/04/30 08:00:47;;;;;;;6.70;3.37;;;;;;;9.22;100.00;101906.69;7394470;19;20398;-55
2022/04/30 08:03:17;;;;;;;13.83;4.30;;;;;;;9.13;100.00;101923.28;7388385;19;20415;-54
2022/04/30 08:05:46;;;;;;;33.27;15.40;;;;;;;9.05;100.00;101916.75;7395006;19;20428;-52
2022/04/30 08:08:16;;;;;;;15.50;6.70;;;;;;;9.20;100.00;101929.75;7388416;19;20441;-55
2022/04/30 08:10:46;;;;;;;8.67;3.20;;;;;;;9.47;100.00;101926.31;7394214;19;20379;-54
2022/04/30 08:13:15;;;;;;;26.13;9.83;;;;;;;9.40;100.00;101938.81;7387466;19;20422;-55
2022/04/30 08:15:47;;;;;;;10.10;3.10;;;;;;;9.67;100.00;101945.63;7392028;19;20416;-56
2022/04/30 08:18:17;;;;;;;38.63;16.03;;;;;;;9.71;100.00;101976.84;7387234;19;20430;-54
2022/04/30 08:20:47;;;;;;;19.23;8.80;;;;;;;9.79;100.00;101992.81;7393636;19;20387;-52
2022/04/30 08:23:18;;;;;;;5.87;2.60;;;;;;;10.00;100.00;101992.41;7388180;19;20418;-52
2022/04/30 08:25:47;;;;;;;8.03;2.67;;;;;;;9.89;100.00;101990.84;7391889;19;20415;-52
2022/04/30 08:28:17;;;;;;;6.57;2.63;;;;;;;10.08;100.00;101988.66;7386601;19;20441;-58
2022/04/30 08:30:49;;;;;;;4.30;2.70;;;;;;;10.10;100.00;101999.94;7393184;19;20387;-51
2022/04/30 08:33:19;;;;;;;20.63;7.03;;;;;;;10.15;100.00;102009.66;7386194;19;20440;-53
2022/04/30 08:35:49;;;;;;;19.07;7.23;;;;;;;10.19;100.00;102002.22;7391225;19;20422;-59
2022/04/30 08:38:18;;;;;;;7.63;3.07;;;;;;;10.38;100.00;101987.91;7386250;19;20413;-57
2022/04/30 08:40:48;;;;;;;7.90;2.97;;;;;;;10.53;100.00;101999.19;7393383;19;20396;-51
2022/04/30 08:43:18;;;;;;;9.13;3.57;;;;;;;10.44;100.00;101998.63;7386313;19;20750;-53
2022/04/30 08:45:51;;;;;;;4.80;2.67;;;;;;;10.65;100.00;102003.31;7391120;19;20420;-55
2022/04/30 08:48:20;;;;;;;19.83;7.80;;;;;;;10.70;100.00;101999.34;7377585;19;20436;-58
2022/04/30 08:50:50;;;;;;;16.57;6.20;;;;;;;10.84;100.00;102015.69;7392929;19;20919;-57
2022/04/30 08:53:19;;;;;;;4.70;2.40;;;;;;;10.82;100.00;102017.25;7387589;19;20420;-54
2022/04/30 08:55:49;;;;;;;6.90;2.60;;;;;;;11.04;100.00;102013.41;7397476;19;20413;-54
2022/04/30 08:58:19;;;;;;;8.10;2.50;;;;;;;11.01;100.00;102010.63;7391953;19;20504;-52
2022/04/30 09:00:51;;;;;;;5.03;2.27;;;;;;;11.25;100.00;102012.88;7400287;19;20401;-54
2022/04/30 09:03:22;;;;;;;3.90;2.13;;;;;;;11.19;100.00;102008.25;7393285;19;20926;-59
2022/04/30 09:05:52;;;;;;;4.47;2.50;;;;;;;10.83;100.00;102010.41;7396815;19;20519;-54
2022/04/30 09:08:21;;;;;;;10.00;2.23;;;;;;;11.01;100.00;102008.03;7392546;19;20444;-57
2022/04/30 09:10:51;;;;;;;9.27;4.47;;;;;;;11.01;100.00;102020.94;7399995;19;20399;-52
2022/04/30 09:13:20;;;;;;;6.87;2.40;;;;;;;11.01;100.00;102016.69;7389470;19;20408;-54
2022/04/30 09:15:57;;;;;;;9.73;2.17;;;;;;;10.95;100.00;102018.91;7401883;19;20440;-53
2022/04/30 09:18:26;;;;;;;6.57;2.13;;;;;;;11.10;100.00;102018.94;7395874;19;20448;-54
2022/04/30 09:20:57;;;;;;;7.57;2.53;;;;;;;11.20;100.00;102031.63;7399572;19;20404;-55
2022/04/30 09:23:27;;;;;;;6.40;2.60;;;;;;;11.35;100.00;102029.00;7397809;19;20424;-52
2022/04/30 09:25:58;;;;;;;4.60;2.83;;;;;;;11.42;100.00;102011.28;7397383;19;20487;-54
2022/04/30 09:28:29;;;;;;;4.90;2.40;;;;;;;11.25;100.00;102018.06;7398013;19;20429;-59
2022/04/30 09:31:12;;;;;;;21.13;6.70;;;;;;;11.15;100.00;102014.94;7399201;19;20415;-59
2022/04/30 09:33:55;;;;;;;9.63;3.90;;;;;;;11.17;100.00;102013.31;7396120;19;20492;-59
2022/04/30 09:39:13;;;;;;;8.80;3.90;;;;;;;11.45;100.00;102022.69;7398000;19;20464;-53
2022/04/30 09:41:43;;;;;;;10.00;3.67;;;;;;;11.46;100.00;102026.19;7393030;19;20420;-58
2022/04/30 09:44:13;;;;;;;8.70;3.10;;;;;;;11.61;100.00;102018.44;7398250;19;20401;-56
2022/04/30 09:46:47;;;;;;;17.27;5.70;;;;;;;11.76;100.00;102018.41;7392372;19;20831;-54
2022/04/30 09:54:42;;;;;;;9.33;3.67;;;;;;;12.00;100.00;102016.31;7401595;19;20451;-55
2022/04/30 09:57:14;;;;;;;6.40;3.60;;;;;;;12.14;100.00;102017.13;7392462;19;20420;-54
2022/04/30 09:59:45;;;;;;;20.53;9.53;;;;;;;12.18;100.00;102023.38;7398555;19;20380;-49
2022/04/30 10:02:19;;;;;;;9.23;3.73;;;;;;;12.35;100.00;102015.66;7393127;19;20407;-52
2022/04/30 10:04:50;;;;;;;9.10;4.10;;;;;;;12.07;100.00;102014.09;7395706;19;21068;-55
2022/04/30 10:07:22;;;;;;;6.70;3.53;;;;;;;12.26;100.00;102016.91;7390825;19;20420;-52
2022/04/30 10:09:58;;;;;;;19.30;8.10;;;;;;;11.85;100.00;102018.06;7396536;19;20740;-57
2022/04/30 10:12:31;;;;;;;16.70;6.83;;;;;;;11.80;100.00;102014.31;7392922;19;20421;-53
2022/04/30 10:15:07;;;;;;;8.33;3.40;;;;;;;11.76;100.00;102010.66;7395935;19;20419;-60
2022/04/30 10:17:42;;;;;;;4.83;2.97;;;;;;;11.75;100.00;102006.31;7390273;19;21043;-54
2022/04/30 10:20:16;;;;;;;8.10;3.50;;;;;;;11.63;100.00;102010.78;7397974;19;20408;-58
2022/04/30 10:22:53;;;;;;;9.17;4.40;;;;;;;11.47;100.00;102009.88;7391763;19;20438;-54
2022/04/30 10:25:34;;;;;;;7.83;3.27;;;;;;;11.45;100.00;102007.19;7391260;19;20497;-55
2022/04/30 10:28:07;;;;;;;9.27;3.00;;;;;;;11.60;100.00;102007.19;7385684;19;20417;-54
2022/04/30 10:30:38;;;;;;;7.27;3.37;;;;;;;12.17;100.00;102005.16;7392104;19;20383;-50
2022/04/30 10:33:11;;;;;;;7.57;3.50;;;;;;;12.26;100.00;101996.19;7389221;19;20498;-57
2022/04/30 10:35:42;;;;;;;9.17;3.50;;;;;;;12.44;100.00;102000.59;7392154;19;20422;-51
2022/04/30 10:38:16;;;;;;;10.07;4.50;;;;;;;12.63;100.00;102014.53;7388507;19;20399;-52
2022/04/30 10:40:49;;;;;;;7.20;3.50;;;;;;;12.49;100.00;102004.34;7395300;19;20380;-50
2022/04/30 10:43:20;;;;;;;8.80;3.20;;;;;;;12.69;100.00;101996.75;7389140;19;20515;-55
2022/04/30 10:45:50;;;;;;;11.57;5.40;;;;;;;13.02;100.00;102001.03;7393177;19;20473;-53
2022/04/30 10:48:22;;;;;;;9.40;4.43;;;;;;;12.72;100.00;102008.97;7387812;19;20422;-49
2022/04/30 10:51:05;;;;;;;8.40;3.40;;;;;;;12.28;100.00;102004.97;7392789;19;20393;-54
2022/04/30 10:53:35;;;;;;;6.43;3.10;;;;;;;12.24;100.00;102000.41;7393142;19;21021;-55
2022/04/30 10:56:06;;;;;;;14.87;7.27;;;;;;;12.62;100.00;101989.47;7388039;19;20780;-57
2022/04/30 10:58:37;;;;;;;12.70;6.97;;;;;;;12.85;100.00;101987.16;7393989;19;20363;-54
2022/04/30 11:01:14;;;;;;;6.13;3.43;;;;;;;13.33;100.00;101982.72;7387582;19;20386;-55
2022/04/30 11:03:48;;;;;;;8.40;3.20;;;;;;;13.36;100.00;101989.75;7393362;19;20388;-50
2022/04/30 11:06:23;;;;;;;8.83;3.20;;;;;;;13.18;100.00;101997.50;7386769;19;20413;-53
2022/04/30 11:09:00;;;;;;;8.93;3.73;;;;;;;12.95;100.00;101994.63;7397181;19;20983;-57
2022/04/30 11:11:30;;;;;;;6.00;3.13;;;;;;;13.06;100.00;101990.88;7385694;19;20481;-54
2022/04/30 11:14:04;;;;;;;7.73;2.60;;;;;;;13.07;100.00;102003.03;7394289;19;20393;-51
2022/04/30 11:16:34;;;;;;;9.27;4.63;;;;;;;12.73;100.00;101996.09;7385737;19;20425;-60
2022/04/30 11:19:10;;;;;;;13.83;4.13;;;;;;;12.50;100.00;101985.41;7396072;19;20716;-57
2022/04/30 11:21:42;;;;;;;7.57;3.20;;;;;;;12.41;100.00;101988.38;7388917;19;20455;-54
2022/04/30 11:24:13;;;;;;;9.60;4.00;;;;;;;12.55;100.00;101977.88;7394699;19;20402;-53
2022/04/30 11:26:44;;;;;;;6.33;3.10;;;;;;;12.88;100.00;101976.97;7388529;19;20408;-57
2022/04/30 11:29:14;;;;;;;8.40;3.40;;;;;;;13.20;100.00;101975.16;7396521;19;20401;-57
2022/04/30 11:31:44;;;;;;;8.20;3.97;;;;;;;13.48;100.00;101973.94;7387450;19;20422;-55
2022/04/30 11:34:17;;;;;;;7.57;3.30;;;;;;;13.20;100.00;101975.16;7394194;19;20396;-53
2022/04/30 11:36:48;;;;;;;5.27;2.33;;;;;;;12.89;100.00;101973.56;7390504;19;20403;-52
2022/04/30 11:39:19;;;;;;;5.50;2.73;;;;;;;12.73;100.00;101967.63;7394800;19;20388;-56
2022/04/30 11:41:50;;;;;;;6.17;3.37;;;;;;;13.11;100.00;101962.63;7390079;19;20419;-58
2022/04/30 11:44:20;;;;;;;10.83;3.43;;;;;;;13.12;100.00;101963.50;7394139;19;20376;-54
2022/04/30 11:46:51;;;;;;;11.50;3.70;;;;;;;13.33;100.00;101959.38;7389602;19;20411;-55
2022/04/30 11:49:24;;;;;;;6.83;3.47;;;;;;;13.52;100.00;101962.91;7398363;19;20394;-53
2022/04/30 11:52:11;;;;;;;5.53;3.20;;;;;;;13.45;100.00;101960.81;7386696;19;20939;-51
2022/04/30 11:54:42;;;;;;;5.40;3.07;;;;;;;13.60;100.00;101959.00;7393576;19;20396;-58
2022/04/30 11:57:11;;;;;;;24.90;12.50;;;;;;;13.75;99.40;101964.03;7385241;19;20447;-54
2022/04/30 11:59:42;;;;;;;7.70;3.47;;;;;;;13.66;100.00;101958.41;7395144;19;20424;-51
2022/04/30 12:02:16;;;;;;;26.43;8.77;;;;;;;13.66;93.85;101961.00;7389923;19;20406;-56
2022/04/30 12:04:50;;;;;;;17.33;8.00;;;;;;;13.35;98.85;101959.47;7395527;19;20490;-56
2022/04/30 12:07:20;;;;;;;16.67;7.20;;;;;;;13.39;100.00;101952.75;7388114;19;20406;-54
2022/04/30 12:09:50;;;;;;;76.07;22.63;;;;;;;13.37;100.00;101948.38;7393870;19;20397;-57